createdAt,value
2018-07-22T00:00:28.566Z,18.80
2018-07-22T00:02:57.519Z,18.80
2018-07-22T00:05:26.491Z,18.80
2018-07-22T00:07:55.517Z,18.70
2018-07-22T00:10:29.335Z,18.70
2018-07-22T00:12:59.188Z,18.70
2018-07-22T00:15:28.174Z,18.70
2018-07-22T00:17:57.145Z,18.70
2018-07-22T00:20:26.165Z,18.60
2018-07-22T00:22:55.190Z,18.40
2018-07-22T00:25:24.354Z,18.30
2018-07-22T00:27:53.312Z,18.20
2018-07-22T00:30:22.230Z,18.10
2018-07-22T00:32:51.479Z,18.10
2018-07-22T00:35:20.729Z,18.10
2018-07-22T00:37:49.747Z,18.00
2018-07-22T00:40:18.741Z,18.00
2018-07-22T00:42:47.675Z,18.00
2018-07-22T00:45:16.714Z,17.90
2018-07-22T00:47:45.787Z,17.80
2018-07-22T00:50:14.763Z,17.80
2018-07-22T00:52:43.677Z,17.70
2018-07-22T00:55:12.638Z,17.70
2018-07-22T00:57:41.572Z,17.70
2018-07-22T01:00:10.562Z,17.60
2018-07-22T01:02:39.487Z,17.60
2018-07-22T01:05:08.527Z,17.50
2018-07-22T01:07:37.506Z,17.40
2018-07-22T01:10:06.613Z,17.40
2018-07-22T01:12:35.662Z,17.40
2018-07-22T01:15:05.332Z,17.40
2018-07-22T01:17:34.289Z,17.30
2018-07-22T01:20:03.352Z,17.30
2018-07-22T01:22:32.418Z,17.20
2018-07-22T01:25:01.556Z,17.30
2018-07-22T01:27:30.534Z,17.20
2018-07-22T01:29:59.448Z,17.20
2018-07-22T01:32:28.544Z,17.10
2018-07-22T01:34:57.451Z,17.10
2018-07-22T01:39:55.008Z,17.10
2018-07-22T01:42:23.927Z,17.10
2018-07-22T01:44:52.903Z,17.10
2018-07-22T01:47:21.845Z,17.10
2018-07-22T01:49:50.795Z,17.00
2018-07-22T01:52:19.897Z,17.00
2018-07-22T01:54:48.884Z,16.90
2018-07-22T01:57:17.826Z,16.90
2018-07-22T01:59:46.791Z,16.80
2018-07-22T02:02:15.725Z,16.80
2018-07-22T02:04:44.682Z,16.70
2018-07-22T02:07:13.630Z,16.70
2018-07-22T02:09:42.542Z,16.70
2018-07-22T02:12:11.499Z,16.60
2018-07-22T02:14:41.683Z,16.60
2018-07-22T02:17:10.648Z,16.60
2018-07-22T02:19:39.615Z,16.60
2018-07-22T02:22:08.582Z,16.40
2018-07-22T02:24:37.490Z,16.40
2018-07-22T02:27:06.463Z,16.40
2018-07-22T02:29:35.478Z,16.40
2018-07-22T02:32:04.532Z,16.30
2018-07-22T02:34:33.430Z,16.30
2018-07-22T02:39:31.176Z,16.20
2018-07-22T02:42:00.184Z,16.20
2018-07-22T02:44:29.127Z,16.20
2018-07-22T02:46:58.060Z,16.20
2018-07-22T02:49:27.070Z,16.20
2018-07-22T02:51:56.051Z,16.20
2018-07-22T02:54:24.988Z,16.20
2018-07-22T02:56:53.971Z,16.30
2018-07-22T02:59:22.999Z,16.30
2018-07-22T03:01:51.913Z,16.30
2018-07-22T03:04:20.883Z,16.20
2018-07-22T03:06:49.884Z,16.20
2018-07-22T03:09:18.879Z,16.10
2018-07-22T03:11:47.818Z,16.00
2018-07-22T03:14:16.736Z,15.90
2018-07-22T03:16:45.698Z,15.90
2018-07-22T03:19:14.642Z,16.00
2018-07-22T03:21:43.607Z,16.10
2018-07-22T03:24:13.599Z,16.30
2018-07-22T03:26:42.587Z,16.30
2018-07-22T03:29:11.514Z,16.40
2018-07-22T03:31:40.486Z,16.30
2018-07-22T03:34:09.493Z,16.20
2018-07-22T03:36:38.387Z,16.10
2018-07-22T03:39:09.099Z,16.10
2018-07-22T03:41:38.063Z,16.30
2018-07-22T03:44:07.244Z,16.60
2018-07-22T03:46:36.196Z,16.90
2018-07-22T03:49:05.215Z,17.10
2018-07-22T03:51:34.187Z,17.40
2018-07-22T03:54:03.171Z,17.60
2018-07-22T03:56:32.091Z,17.90
2018-07-22T03:59:01.115Z,18.00
2018-07-22T04:01:30.042Z,18.20
2018-07-22T04:03:59.087Z,18.40
2018-07-22T04:06:27.993Z,18.40
2018-07-22T04:08:56.920Z,18.60
2018-07-22T04:13:54.466Z,18.70
2018-07-22T04:16:23.426Z,19.10
2018-07-22T04:18:53.589Z,19.30
2018-07-22T04:21:24.729Z,19.50
2018-07-22T04:23:53.777Z,19.60
2018-07-22T04:26:22.961Z,19.60
2018-07-22T04:28:52.180Z,19.50
2018-07-22T04:31:21.490Z,19.60
2018-07-22T04:33:50.549Z,19.70
2018-07-22T04:36:19.608Z,19.80
2018-07-22T04:38:48.744Z,19.90
2018-07-22T04:41:17.667Z,19.80
2018-07-22T04:43:46.627Z,19.90
2018-07-22T04:46:15.690Z,20.00
2018-07-22T04:48:44.935Z,20.20
2018-07-22T04:51:13.856Z,20.40
2018-07-22T04:53:42.797Z,20.40
2018-07-22T04:56:11.713Z,20.50
2018-07-22T04:58:40.674Z,20.50
2018-07-22T05:01:09.616Z,20.60
2018-07-22T05:03:38.585Z,20.80
2018-07-22T05:06:07.539Z,20.80
2018-07-22T05:08:36.513Z,20.80
2018-07-22T05:11:05.853Z,20.90
2018-07-22T05:13:34.798Z,21.10
2018-07-22T05:16:03.770Z,21.30
2018-07-22T05:18:32.688Z,21.40
2018-07-22T05:21:01.844Z,21.60
2018-07-22T05:25:59.307Z,22.20
2018-07-22T05:30:57.464Z,22.50
2018-07-22T05:33:26.421Z,22.60
2018-07-22T05:35:55.380Z,22.90
2018-07-22T05:38:24.394Z,23.40
2018-07-22T05:40:53.388Z,23.70
2018-07-22T05:43:22.275Z,24.30
2018-07-22T05:45:51.229Z,25.10
2018-07-22T05:48:20.272Z,25.80
2018-07-22T05:50:49.220Z,26.20
2018-07-22T05:53:18.186Z,26.80
2018-07-22T05:55:47.273Z,27.50
2018-07-22T05:58:16.253Z,28.40
2018-07-22T06:00:45.176Z,29.50
2018-07-22T06:03:14.152Z,30.30
2018-07-22T06:05:43.134Z,31.00
2018-07-22T06:08:12.110Z,31.90
2018-07-22T06:10:41.027Z,32.20
2018-07-22T06:13:10.003Z,33.50
2018-07-22T06:15:38.963Z,33.90
2018-07-22T06:18:07.893Z,34.30
2018-07-22T06:20:36.891Z,34.90
2018-07-22T06:23:06.162Z,35.40
2018-07-22T06:25:35.151Z,36.00
2018-07-22T06:28:04.159Z,36.70
2018-07-22T06:30:33.128Z,36.30
2018-07-22T06:33:02.136Z,35.30
2018-07-22T06:35:31.129Z,36.40
2018-07-22T06:38:00.076Z,37.50
2018-07-22T06:40:29.102Z,37.90
2018-07-22T06:42:58.015Z,38.40
2018-07-22T06:45:26.942Z,38.50
2018-07-22T06:47:55.930Z,39.60
2018-07-22T06:50:24.906Z,39.80
2018-07-22T06:52:53.854Z,40.30
2018-07-22T06:55:22.780Z,40.00
2018-07-22T07:02:48.970Z,42.40
2018-07-22T07:05:17.890Z,41.50
2018-07-22T07:07:46.879Z,41.60
2018-07-22T07:10:15.794Z,41.10
2018-07-22T07:12:45.164Z,41.80
2018-07-22T07:15:14.576Z,43.00
2018-07-22T07:17:43.878Z,42.40
2018-07-22T07:20:12.823Z,42.60
2018-07-22T07:22:41.765Z,42.80
2018-07-22T07:25:10.803Z,41.70
2018-07-22T07:27:39.746Z,40.70
2018-07-22T07:30:08.737Z,40.40
2018-07-22T07:32:37.701Z,41.20
2018-07-22T07:35:06.666Z,41.50
2018-07-22T07:37:35.587Z,42.10
2018-07-22T07:40:05.011Z,41.40
2018-07-22T07:42:33.936Z,41.20
2018-07-22T07:45:02.962Z,41.20
2018-07-22T07:47:32.156Z,42.10
2018-07-22T07:50:01.456Z,43.40
2018-07-22T07:52:30.676Z,44.00
2018-07-22T07:54:59.757Z,43.50
2018-07-22T07:57:29.167Z,43.90
2018-07-22T07:59:58.955Z,43.40
2018-07-22T08:02:28.115Z,44.00
2018-07-22T08:04:57.309Z,43.00
2018-07-22T08:07:26.426Z,42.90
2018-07-22T08:09:55.727Z,42.10
2018-07-22T08:12:25.031Z,43.10
2018-07-22T08:14:54.337Z,43.40
2018-07-22T08:17:23.675Z,43.80
2018-07-22T08:19:53.269Z,43.20
2018-07-22T08:22:23.444Z,43.60
2018-07-22T08:24:52.464Z,43.10
2018-07-22T08:27:21.378Z,43.10
2018-07-22T08:29:50.455Z,42.90
2018-07-22T08:32:19.344Z,42.80
2018-07-22T08:34:48.227Z,42.20
2018-07-22T08:37:31.631Z,42.80
2018-07-22T08:40:01.169Z,43.70
2018-07-22T08:42:30.223Z,43.00
2018-07-22T08:44:59.377Z,42.90
2018-07-22T08:47:28.618Z,42.70
2018-07-22T08:49:57.542Z,43.20
2018-07-22T08:52:26.539Z,42.30
2018-07-22T08:54:55.450Z,41.20
2018-07-22T08:57:24.446Z,41.70
2018-07-22T08:59:53.718Z,42.30
2018-07-22T09:02:22.733Z,43.30
2018-07-22T09:04:51.627Z,42.50
2018-07-22T09:07:20.625Z,41.90
2018-07-22T09:09:49.625Z,42.10
2018-07-22T09:12:18.602Z,41.20
2018-07-22T09:14:47.611Z,41.00
2018-07-22T09:17:16.547Z,40.60
2018-07-22T09:19:45.535Z,40.10
2018-07-22T09:22:14.580Z,40.30
2018-07-22T09:24:43.563Z,41.00
2018-07-22T09:27:12.568Z,40.60
2018-07-22T09:29:41.529Z,40.70
2018-07-22T09:32:10.605Z,40.70
2018-07-22T09:34:39.714Z,39.80
2018-07-22T09:37:08.765Z,39.00
2018-07-22T09:39:37.664Z,37.00
2018-07-22T09:42:06.857Z,34.50
2018-07-22T09:44:35.773Z,31.60
2018-07-22T09:47:04.783Z,30.80
2018-07-22T09:49:33.795Z,30.90
2018-07-22T09:52:02.822Z,31.00
2018-07-22T09:54:31.804Z,30.50
2018-07-22T09:57:00.787Z,29.90
2018-07-22T09:59:29.826Z,29.90
2018-07-22T10:01:58.810Z,30.30
2018-07-22T10:04:27.744Z,30.50
2018-07-22T10:06:56.690Z,30.30
2018-07-22T10:09:25.767Z,30.50
2018-07-22T10:11:55.911Z,29.90
2018-07-22T10:14:24.948Z,29.70
2018-07-22T10:16:53.875Z,29.80
2018-07-22T10:19:22.836Z,30.10
2018-07-22T10:21:51.776Z,30.30
2018-07-22T10:24:20.769Z,30.40
2018-07-22T10:26:49.794Z,30.20
2018-07-22T10:29:18.746Z,29.70
2018-07-22T10:31:47.713Z,29.50
2018-07-22T10:34:16.729Z,29.30
2018-07-22T10:36:45.647Z,28.80
2018-07-22T10:39:14.596Z,28.50
2018-07-22T10:41:43.559Z,28.80
2018-07-22T10:44:12.464Z,28.90
2018-07-22T10:46:41.666Z,29.20
2018-07-22T10:49:10.992Z,28.90
2018-07-22T10:51:39.961Z,28.60
2018-07-22T10:54:09.013Z,28.50
2018-07-22T10:56:37.959Z,28.60
2018-07-22T10:59:06.982Z,28.90
2018-07-22T11:01:36.679Z,28.80
2018-07-22T11:04:05.957Z,28.90
2018-07-22T11:06:35.274Z,28.50
2018-07-22T11:09:05.424Z,28.50
2018-07-22T11:11:34.378Z,28.70
2018-07-22T11:14:03.345Z,28.90
2018-07-22T11:16:32.394Z,28.90
2018-07-22T11:19:01.370Z,28.90
2018-07-22T11:21:30.453Z,28.60
2018-07-22T11:26:28.332Z,28.70
2018-07-22T11:28:57.379Z,28.40
2018-07-22T11:31:26.454Z,28.40
2018-07-22T11:33:55.502Z,28.50
2018-07-22T11:36:24.449Z,28.60
2018-07-22T11:38:53.519Z,28.60
2018-07-22T11:41:22.518Z,28.80
2018-07-22T11:43:51.458Z,29.00
2018-07-22T11:46:20.955Z,29.00
2018-07-22T11:48:49.918Z,29.30
2018-07-22T11:51:18.894Z,29.60
2018-07-22T11:53:47.848Z,29.50
2018-07-22T11:56:16.907Z,29.00
2018-07-22T11:58:46.829Z,28.70
2018-07-22T12:01:15.881Z,28.50
2018-07-22T12:03:45.577Z,28.40
2018-07-22T12:06:14.607Z,28.50
2018-07-22T12:08:43.809Z,28.50
2018-07-22T12:11:12.961Z,28.60
2018-07-22T12:13:41.961Z,28.50
2018-07-22T12:16:11.171Z,28.60
2018-07-22T12:18:40.286Z,28.70
2018-07-22T12:21:09.238Z,28.70
2018-07-22T12:23:38.418Z,28.70
2018-07-22T12:26:07.383Z,28.80
2018-07-22T12:28:36.327Z,28.80
2018-07-22T12:31:05.244Z,29.10
2018-07-22T12:33:34.239Z,29.20
2018-07-22T12:36:03.479Z,29.50
2018-07-22T12:38:32.462Z,29.50
2018-07-22T12:41:01.402Z,29.10
2018-07-22T12:43:30.499Z,29.10
2018-07-22T12:45:59.466Z,29.20
2018-07-22T12:48:28.417Z,29.50
2018-07-22T12:50:57.428Z,29.60
2018-07-22T12:53:26.367Z,29.80
2018-07-22T12:55:55.362Z,29.90
2018-07-22T12:58:24.403Z,29.90
2018-07-22T13:00:53.392Z,29.70
2018-07-22T13:03:22.341Z,30.00
2018-07-22T13:05:51.319Z,30.20
2018-07-22T13:08:20.231Z,30.30
2018-07-22T13:10:49.233Z,29.90
2018-07-22T13:13:18.159Z,29.50
2018-07-22T13:15:47.073Z,29.50
2018-07-22T13:18:16.119Z,29.50
2018-07-22T13:20:45.053Z,29.50
2018-07-22T13:23:14.040Z,29.30
2018-07-22T13:25:43.090Z,29.10
2018-07-22T13:28:12.053Z,29.30
2018-07-22T13:33:09.542Z,29.30
2018-07-22T13:35:38.504Z,29.00
2018-07-22T13:38:07.515Z,28.60
2018-07-22T13:40:36.482Z,28.40
2018-07-22T13:43:05.499Z,28.30
2018-07-22T13:45:34.435Z,28.10
2018-07-22T13:48:03.443Z,28.00
2018-07-22T13:50:32.441Z,27.80
2018-07-22T13:53:01.457Z,27.80
2018-07-22T13:55:30.414Z,28.10
2018-07-22T13:57:59.342Z,28.30
2018-07-22T14:00:28.430Z,28.50
2018-07-22T14:02:57.378Z,28.50
2018-07-22T14:05:26.381Z,28.60
2018-07-22T14:07:55.393Z,28.70
2018-07-22T14:10:24.424Z,28.70
2018-07-22T14:12:53.370Z,28.30
2018-07-22T14:15:22.379Z,27.80
2018-07-22T14:17:51.394Z,27.70
2018-07-22T14:20:20.550Z,27.80
2018-07-22T14:22:49.515Z,27.80
2018-07-22T14:25:18.482Z,27.60
2018-07-22T14:27:47.524Z,27.40
2018-07-22T14:30:16.492Z,27.30
2018-07-22T14:32:45.439Z,27.30
2018-07-22T14:35:14.535Z,27.30
2018-07-22T14:37:43.474Z,27.10
2018-07-22T14:40:12.384Z,27.10
2018-07-22T14:42:41.339Z,27.10
2018-07-22T14:45:10.273Z,27.10
2018-07-22T14:47:39.314Z,27.10
2018-07-22T14:50:08.373Z,27.10
2018-07-22T14:52:37.281Z,27.30
2018-07-22T14:55:06.295Z,27.50
2018-07-22T14:57:35.214Z,27.70
2018-07-22T15:00:04.298Z,27.70
2018-07-22T15:02:33.246Z,27.70
2018-07-22T15:05:02.216Z,27.70
2018-07-22T15:07:31.213Z,27.50
2018-07-22T15:10:00.157Z,27.60
2018-07-22T15:12:29.079Z,27.70
2018-07-22T15:14:58.099Z,27.70
2018-07-22T15:17:27.133Z,27.70
2018-07-22T15:19:56.053Z,27.60
2018-07-22T15:22:25.075Z,27.50
2018-07-22T15:24:54.051Z,27.60
2018-07-22T15:27:23.134Z,27.60
2018-07-22T15:29:52.194Z,27.60
2018-07-22T15:32:21.760Z,27.60
2018-07-22T15:34:50.856Z,27.60
2018-07-22T15:37:21.177Z,27.40
2018-07-22T15:39:50.139Z,27.40
2018-07-22T15:42:19.161Z,27.30
2018-07-22T15:44:48.130Z,27.40
2018-07-22T15:47:17.042Z,27.40
2018-07-22T15:49:46.034Z,27.40
2018-07-22T15:52:14.958Z,27.20
2018-07-22T15:54:44.019Z,27.20
2018-07-22T15:57:12.950Z,27.10
2018-07-22T15:59:41.903Z,27.00
2018-07-22T16:02:10.825Z,26.90
2018-07-22T16:04:39.832Z,26.80
2018-07-22T16:07:09.244Z,26.80
2018-07-22T16:09:39.192Z,26.80
2018-07-22T16:12:08.118Z,27.00
2018-07-22T16:14:37.115Z,26.90
2018-07-22T16:17:06.245Z,26.90
2018-07-22T16:19:35.171Z,26.80
2018-07-22T16:22:04.152Z,26.90
2018-07-22T16:24:33.212Z,26.90
2018-07-22T16:27:02.195Z,26.80
2018-07-22T16:29:31.142Z,26.90
2018-07-22T16:32:00.156Z,26.90
2018-07-22T16:34:29.069Z,26.90
2018-07-22T16:36:58.078Z,26.80
2018-07-22T16:39:26.989Z,26.70
2018-07-22T16:44:24.512Z,26.70
2018-07-22T16:46:53.531Z,26.60
2018-07-22T16:49:22.620Z,26.50
2018-07-22T16:51:51.543Z,26.60
2018-07-22T16:54:20.577Z,26.50
2018-07-22T16:56:49.485Z,26.50
2018-07-22T16:59:18.489Z,26.40
2018-07-22T17:01:47.442Z,26.40
2018-07-22T17:04:16.513Z,26.40
2018-07-22T17:06:45.474Z,26.30
2018-07-22T17:09:14.435Z,26.30
2018-07-22T17:11:43.495Z,26.20
2018-07-22T17:14:12.582Z,26.20
2018-07-22T17:16:41.561Z,26.10
2018-07-22T17:19:10.520Z,26.10
2018-07-22T17:21:39.609Z,26.10
2018-07-22T17:24:08.655Z,26.10
2018-07-22T17:26:37.693Z,26.00
2018-07-22T17:29:06.687Z,25.90
2018-07-22T17:31:35.835Z,25.90
2018-07-22T17:34:05.009Z,25.80
2018-07-22T17:36:34.109Z,25.80
2018-07-22T17:39:03.302Z,25.80
2018-07-22T17:41:32.265Z,25.70
2018-07-22T17:44:01.580Z,25.70
2018-07-22T17:46:30.788Z,25.60
2018-07-22T17:48:59.772Z,25.60
2018-07-22T17:51:28.824Z,25.50
2018-07-22T17:53:57.788Z,25.50
2018-07-22T17:56:26.940Z,25.50
2018-07-22T17:58:56.041Z,25.40
2018-07-22T18:01:25.085Z,25.40
2018-07-22T18:03:54.080Z,25.40
2018-07-22T18:06:24.024Z,25.40
2018-07-22T18:08:52.987Z,25.50
2018-07-22T18:11:22.231Z,25.60
2018-07-22T18:13:51.177Z,25.50
2018-07-22T18:16:20.167Z,25.30
2018-07-22T18:18:49.164Z,25.20
2018-07-22T18:21:18.147Z,25.10
2018-07-22T18:23:47.083Z,25.00
2018-07-22T18:26:16.131Z,24.90
2018-07-22T18:28:45.114Z,24.90
2018-07-22T18:31:14.040Z,24.90
2018-07-22T18:33:43.034Z,24.80
2018-07-22T18:36:12.022Z,24.70
2018-07-22T18:38:40.976Z,24.60
2018-07-22T18:41:09.960Z,24.60
2018-07-22T18:43:38.890Z,24.50
2018-07-22T18:46:07.855Z,24.40
2018-07-22T18:48:36.871Z,24.30
2018-07-22T18:51:05.866Z,24.30
2018-07-22T18:53:34.850Z,24.20
2018-07-22T18:56:03.771Z,24.20
2018-07-22T18:58:32.799Z,24.10
2018-07-22T19:01:01.759Z,24.00
2018-07-22T19:03:30.710Z,24.00
2018-07-22T19:05:59.640Z,23.90
2018-07-22T19:08:28.827Z,23.90
2018-07-22T19:10:58.019Z,23.80
2018-07-22T19:13:27.102Z,23.70
2018-07-22T19:15:56.067Z,23.60
2018-07-22T19:18:25.070Z,23.60
2018-07-22T19:20:54.157Z,23.50
2018-07-22T19:23:23.203Z,23.50
2018-07-22T19:25:52.330Z,23.40
2018-07-22T19:28:21.339Z,23.30
2018-07-22T19:30:50.423Z,23.30
2018-07-22T19:33:19.435Z,23.30
2018-07-22T19:35:48.670Z,23.20
2018-07-22T19:38:17.725Z,23.10
2018-07-22T19:40:46.806Z,23.10
2018-07-22T19:43:15.802Z,23.00
2018-07-22T19:45:44.782Z,23.00
2018-07-22T19:48:13.730Z,22.90
2018-07-22T19:50:43.719Z,22.90
2018-07-22T19:53:12.665Z,22.80
2018-07-22T19:55:42.012Z,22.80
2018-07-22T19:58:11.040Z,22.70
2018-07-22T20:00:40.073Z,22.70
2018-07-22T20:03:09.539Z,22.70
2018-07-22T20:05:38.544Z,22.60
2018-07-22T20:08:07.551Z,22.50
2018-07-22T20:10:36.523Z,22.50
2018-07-22T20:13:05.544Z,22.40
2018-07-22T20:15:34.727Z,22.40
2018-07-22T20:18:03.745Z,22.40
2018-07-22T20:20:32.948Z,22.30
2018-07-22T20:23:02.779Z,22.30
2018-07-22T20:25:31.890Z,22.30
2018-07-22T20:30:29.867Z,22.20
2018-07-22T20:32:58.895Z,22.20
2018-07-22T20:35:28.441Z,22.20
2018-07-22T20:37:57.393Z,22.20
2018-07-22T20:40:26.459Z,22.20
2018-07-22T20:42:55.498Z,22.10
2018-07-22T20:45:24.566Z,22.00
2018-07-22T20:47:53.652Z,22.00
2018-07-22T20:50:22.756Z,21.90
2018-07-22T20:52:51.795Z,21.80
2018-07-22T20:55:20.829Z,21.80
2018-07-22T20:57:49.851Z,21.80
2018-07-22T21:00:18.809Z,21.70
2018-07-22T21:02:47.753Z,21.70
2018-07-22T21:05:16.743Z,21.60
2018-07-22T21:07:45.794Z,21.60
2018-07-22T21:10:16.291Z,21.50
2018-07-22T21:12:57.125Z,21.50
2018-07-22T21:15:26.241Z,21.40
2018-07-22T21:17:55.214Z,21.40
2018-07-22T21:20:24.183Z,21.40
2018-07-22T21:22:53.898Z,21.30
2018-07-22T21:25:22.859Z,21.30
2018-07-22T21:27:51.765Z,21.30
2018-07-22T21:30:20.848Z,21.30
2018-07-22T21:32:49.770Z,21.20
2018-07-22T21:35:18.711Z,21.20
2018-07-22T21:37:47.645Z,21.20
2018-07-22T21:40:16.645Z,21.10
2018-07-22T21:42:45.667Z,21.10
2018-07-22T21:45:14.664Z,21.00
2018-07-22T21:47:43.585Z,20.90
2018-07-22T21:50:12.535Z,20.90
2018-07-22T21:55:10.254Z,20.80
2018-07-22T21:57:40.339Z,20.80
2018-07-22T22:00:30.695Z,20.70
2018-07-22T22:03:00.977Z,20.70
2018-07-22T22:05:30.007Z,20.60
2018-07-22T22:07:59.031Z,20.50
2018-07-22T22:10:28.155Z,20.50
2018-07-22T22:12:57.245Z,20.40
2018-07-22T22:15:27.507Z,20.30
2018-07-22T22:17:57.685Z,20.30
2018-07-22T22:20:27.268Z,20.20
2018-07-22T22:22:56.314Z,20.20
2018-07-22T22:25:25.251Z,20.20
2018-07-22T22:27:54.525Z,20.10
2018-07-22T22:30:23.489Z,20.10
2018-07-22T22:32:52.434Z,20.00
2018-07-22T22:35:21.453Z,20.00
2018-07-22T22:37:50.664Z,20.00
2018-07-22T22:40:19.666Z,20.00
2018-07-22T22:42:48.679Z,19.90
2018-07-22T22:45:17.755Z,19.80
2018-07-22T22:50:15.326Z,19.80
2018-07-22T22:52:44.306Z,19.80
2018-07-22T22:55:13.366Z,19.80
2018-07-22T22:57:52.270Z,19.70
2018-07-22T23:00:21.891Z,19.70
2018-07-22T23:02:50.887Z,19.60
2018-07-22T23:05:19.954Z,19.60
2018-07-22T23:07:48.919Z,19.50
2018-07-22T23:10:17.857Z,19.50
2018-07-22T23:12:46.923Z,19.40
2018-07-22T23:15:15.916Z,19.30
2018-07-22T23:17:44.887Z,19.40
2018-07-22T23:20:14.462Z,19.40
2018-07-22T23:22:43.472Z,19.30
2018-07-22T23:25:12.434Z,19.30
2018-07-22T23:27:41.386Z,19.20
2018-07-22T23:30:10.393Z,19.20
2018-07-22T23:32:39.338Z,19.20
2018-07-22T23:35:08.283Z,19.20
2018-07-22T23:37:37.235Z,19.20
2018-07-22T23:40:06.261Z,19.10
2018-07-22T23:42:35.229Z,19.10
2018-07-22T23:45:04.305Z,19.10
2018-07-22T23:47:33.214Z,19.10
2018-07-22T23:50:02.150Z,19.00
2018-07-22T23:52:31.075Z,19.00
2018-07-22T23:55:00.107Z,19.00
2018-07-22T23:57:29.079Z,18.90
2018-07-22T23:59:58.012Z,18.90
